Time;durP1;ratioP1;P1;durP2;ratioP2;P2;SDS_P1;SDS_P2;PMS_P1;PMS_P2;Temp;Humidity;BMP_temperature;BMP_pressure;BME280_temperature;BME280_humidity;BME280_pressure;Samples;Min_cycle;Max_cycle;Signal;HPM_P1;HPM_P2
2022/12/06 00:01:55;;;;;;;7.38;4.32;;;;;;;5.90;74.10;100955.72;4162228;28;20083;-69
2022/12/06 00:03:59;;;;;;;5.32;3.75;;;;;;;5.89;73.79;100957.38;4166563;28;20061;-69
2022/12/06 00:06:04;;;;;;;6.22;3.90;;;;;;;5.83;73.91;100958.84;4157590;28;20132;-69
2022/12/06 00:08:06;;;;;;;6.45;3.90;;;;;;;5.83;73.93;100959.72;4157552;28;20491;-69
2022/12/06 00:10:11;;;;;;;8.70;4.32;;;;;;;5.87;73.87;100950.41;4163403;28;20045;-69
2022/12/06 00:12:14;;;;;;;4.80;3.30;;;;;;;5.89;73.85;100959.09;4162679;28;20553;-69
2022/12/06 00:14:17;;;;;;;6.28;3.92;;;;;;;5.89;74.45;100962.56;4140724;28;20737;-68
2022/12/06 00:16:20;;;;;;;6.60;3.53;;;;;;;5.87;74.59;100961.63;4154838;28;20042;-69
2022/12/06 00:18:23;;;;;;;6.13;3.88;;;;;;;5.92;74.30;100962.69;4162632;28;20120;-69
2022/12/06 00:20:26;;;;;;;6.93;4.38;;;;;;;5.91;74.36;100960.94;4160490;28;20509;-69
2022/12/06 00:22:29;;;;;;;7.25;4.10;;;;;;;6.00;73.99;100968.22;4162317;28;20044;-68
2022/12/06 00:24:34;;;;;;;7.07;4.07;;;;;;;5.94;73.96;100957.56;4161903;28;20403;-68
2022/12/06 00:26:39;;;;;;;7.60;4.13;;;;;;;5.92;73.80;100959.22;4161524;28;20072;-69
2022/12/06 00:28:43;;;;;;;7.43;4.53;;;;;;;5.90;74.40;100961.75;4161563;28;20033;-68
2022/12/06 00:30:45;;;;;;;6.70;4.05;;;;;;;5.89;74.58;100953.94;4161879;28;20046;-68
2022/12/06 00:32:48;;;;;;;7.50;3.78;;;;;;;5.89;74.53;100959.97;4163015;28;20037;-68
2022/12/06 00:34:51;;;;;;;13.32;8.25;;;;;;;5.87;75.02;100956.47;4157064;28;20038;-68
2022/12/06 00:36:54;;;;;;;15.93;7.32;;;;;;;5.87;74.65;100951.31;4158598;28;20512;-68
2022/12/06 00:38:59;;;;;;;16.73;10.57;;;;;;;5.86;74.89;100948.66;4163922;28;20041;-68
2022/12/06 00:41:04;;;;;;;14.63;8.02;;;;;;;5.91;75.11;100947.13;4161089;28;20400;-69
2022/12/06 00:43:09;;;;;;;13.75;7.88;;;;;;;5.89;74.83;100949.66;4159639;28;20095;-69
2022/12/06 00:45:11;;;;;;;14.88;6.00;;;;;;;5.90;74.90;100943.69;4154872;28;20037;-69
2022/12/06 00:47:14;;;;;;;12.10;6.53;;;;;;;5.90;75.33;100954.00;4158682;28;20095;-69
2022/12/06 00:49:17;;;;;;;20.15;10.65;;;;;;;5.89;74.65;100949.66;4161242;28;20494;-69
2022/12/06 00:51:21;;;;;;;32.70;15.73;;;;;;;5.88;74.82;100947.88;4158807;28;20056;-69
2022/12/06 00:53:25;;;;;;;14.25;8.25;;;;;;;5.83;75.28;100944.25;4156720;28;20088;-69
2022/12/06 00:55:28;;;;;;;38.42;18.88;;;;;;;5.82;75.03;100944.19;4161787;28;20064;-69
2022/12/06 00:57:30;;;;;;;34.50;17.17;;;;;;;5.80;75.08;100945.78;4159083;28;20484;-69
2022/12/06 00:59:35;;;;;;;28.13;14.10;;;;;;;5.80;75.20;100946.69;4160395;28;20559;-69
2022/12/06 01:01:40;;;;;;;74.78;33.38;;;;;;;5.80;75.20;100938.97;4176421;28;20079;-69
2022/12/06 01:03:44;;;;;;;23.17;11.90;;;;;;;5.83;75.28;100935.63;4177084;28;20091;-69
2022/12/06 01:05:50;;;;;;;52.00;22.83;;;;;;;5.79;75.66;100939.78;4158928;28;20556;-69
2022/12/06 01:07:52;;;;;;;34.03;16.77;;;;;;;5.80;75.68;100938.97;4156727;28;20045;-69
2022/12/06 01:09:55;;;;;;;25.85;12.63;;;;;;;5.78;75.66;100938.00;4163230;28;20099;-69
2022/12/06 01:11:59;;;;;;;17.60;8.43;;;;;;;5.77;75.97;100936.25;4164478;28;20048;-69
2022/12/06 01:14:02;;;;;;;18.60;9.77;;;;;;;5.79;75.93;100932.03;4162806;28;20124;-69
2022/12/06 01:16:09;;;;;;;12.98;6.82;;;;;;;5.81;75.98;100932.09;4158315;28;20407;-70
2022/12/06 01:18:11;;;;;;;10.45;5.47;;;;;;;5.78;76.03;100935.41;4161382;28;20037;-69
2022/12/06 01:20:14;;;;;;;6.93;3.85;;;;;;;5.79;75.86;100941.47;4161360;28;20041;-69
2022/12/06 01:22:17;;;;;;;5.75;3.67;;;;;;;5.78;76.14;100945.75;4162485;28;20045;-69
2022/12/06 01:24:20;;;;;;;27.27;14.65;;;;;;;5.76;76.22;100942.22;4157774;28;20165;-70
2022/12/06 01:26:25;;;;;;;24.35;13.10;;;;;;;5.83;76.05;100941.66;4158451;28;20095;-69
2022/12/06 01:28:28;;;;;;;17.70;10.18;;;;;;;5.82;75.52;100944.19;4157780;28;20037;-69
2022/12/06 01:30:31;;;;;;;39.95;19.95;;;;;;;5.80;75.74;100944.13;4162900;28;20047;-69
2022/12/06 01:32:35;;;;;;;37.10;18.85;;;;;;;5.78;76.20;100945.75;4154824;28;20053;-70
2022/12/06 01:34:38;;;;;;;15.07;8.63;;;;;;;5.80;75.81;100949.28;4153177;28;20049;-69
2022/12/06 01:36:41;;;;;;;66.43;32.80;;;;;;;5.77;75.89;100950.03;4159373;28;20045;-69
2022/12/06 01:38:44;;;;;;;19.58;11.43;;;;;;;5.75;76.43;100951.69;4162170;28;20067;-69
2022/12/06 01:40:48;;;;;;;13.30;6.40;;;;;;;5.76;75.95;100947.38;4159536;28;20778;-69
2022/12/06 01:42:51;;;;;;;13.80;7.70;;;;;;;5.72;76.28;100942.91;4157360;28;20048;-69
2022/12/06 01:44:56;;;;;;;6.63;4.18;;;;;;;5.62;76.27;100943.34;4158952;28;20411;-69
2022/12/06 01:46:59;;;;;;;6.75;4.20;;;;;;;5.63;76.45;100945.13;4163941;28;20049;-69
2022/12/06 01:49:09;;;;;;;11.60;6.15;;;;;;;5.66;76.61;100942.66;4164127;28;20511;-69
2022/12/06 01:51:15;;;;;;;19.55;10.07;;;;;;;5.66;76.40;100943.53;4149118;28;20498;-69
2022/12/06 01:53:19;;;;;;;14.93;9.13;;;;;;;5.66;76.49;100945.25;4156698;28;20045;-69
2022/12/06 01:55:30;;;;;;;10.02;5.53;;;;;;;5.59;76.40;100938.94;4160965;28;20033;-69
2022/12/06 01:57:33;;;;;;;7.30;4.75;;;;;;;5.59;76.34;100944.09;4160616;28;20083;-69
2022/12/06 01:59:37;;;;;;;6.90;4.15;;;;;;;5.64;76.32;100946.88;4153573;28;20515;-69
2022/12/06 02:01:40;;;;;;;5.60;3.60;;;;;;;5.65;76.37;100939.22;4161569;28;20033;-69
2022/12/06 02:03:44;;;;;;;9.05;4.57;;;;;;;5.66;76.22;100940.94;4159364;28;20117;-69
2022/12/06 02:05:48;;;;;;;6.78;4.30;;;;;;;5.64;76.06;100939.16;4162364;28;20057;-70
2022/12/06 02:07:52;;;;;;;9.50;6.07;;;;;;;5.64;76.26;100939.16;4149632;28;20038;-69
2022/12/06 02:09:57;;;;;;;10.03;6.13;;;;;;;5.62;76.28;100938.19;4160496;28;20048;-69
2022/12/06 02:12:00;;;;;;;12.45;7.82;;;;;;;5.63;76.35;100947.69;4161060;28;20053;-69
2022/12/06 02:14:05;;;;;;;10.40;6.22;;;;;;;5.65;76.24;100936.63;4157008;28;20046;-69
2022/12/06 02:16:29;;;;;;;6.80;4.85;;;;;;;5.69;76.62;100937.63;4159318;28;20084;-69
2022/12/06 02:18:38;;;;;;;6.47;4.28;;;;;;;5.70;76.92;100936.81;4162372;28;20403;-69
2022/12/06 02:20:45;;;;;;;8.57;4.90;;;;;;;5.71;77.12;100930.81;4163977;28;20049;-69
2022/12/06 02:23:16;;;;;;;10.38;6.25;;;;;;;5.75;77.00;100930.13;4165768;28;20487;-70
2022/12/06 02:25:51;;;;;;;13.35;8.15;;;;;;;5.71;77.29;100931.72;4157855;28;20033;-69
2022/12/06 02:28:11;;;;;;;14.18;11.20;;;;;;;5.71;77.38;100930.81;4160312;28;20049;-69
2022/12/06 02:30:19;;;;;;;21.75;14.02;;;;;;;5.70;77.12;100926.50;4160522;28;20034;-69
2022/12/06 02:32:29;;;;;;;14.98;11.73;;;;;;;5.72;77.29;100922.28;4165173;28;20052;-69
2022/12/06 02:34:41;;;;;;;14.25;9.32;;;;;;;5.73;77.36;100926.63;4162776;28;20469;-69
2022/12/06 02:36:51;;;;;;;10.23;7.72;;;;;;;5.75;77.17;100922.41;4153397;28;20046;-69
2022/12/06 02:38:59;;;;;;;12.00;8.38;;;;;;;5.74;77.26;100918.94;4162728;28;20041;-69
2022/12/06 02:41:08;;;;;;;9.82;7.55;;;;;;;5.75;77.25;100919.81;4165584;28;20041;-69
2022/12/06 02:43:16;;;;;;;10.45;7.20;;;;;;;5.75;77.16;100917.22;4159600;28;20487;-70
2022/12/06 02:45:25;;;;;;;11.80;8.13;;;;;;;5.76;77.50;100921.59;4161015;28;20030;-70
2022/12/06 02:47:33;;;;;;;13.20;8.07;;;;;;;5.76;77.53;100919.88;4161680;28;20041;-69
2022/12/06 02:49:43;;;;;;;10.18;6.57;;;;;;;5.71;77.35;100918.81;4162436;28;20092;-69
2022/12/06 02:51:47;;;;;;;13.90;9.35;;;;;;;5.68;77.44;100912.63;4166192;28;20072;-69
2022/12/06 02:53:53;;;;;;;11.63;8.70;;;;;;;5.69;77.50;100911.84;4163597;28;20458;-69
2022/12/06 02:55:57;;;;;;;13.10;8.52;;;;;;;5.69;77.69;100904.97;4166567;28;20034;-69
2022/12/06 02:57:59;;;;;;;12.35;7.70;;;;;;;5.72;77.77;100909.38;4159815;28;20045;-69
2022/12/06 03:00:22;;;;;;;11.73;8.35;;;;;;;5.68;77.63;100907.47;4150198;28;20042;-69
2022/12/06 03:02:25;;;;;;;14.77;9.43;;;;;;;5.66;77.96;100903.97;4148985;28;20038;-68
2022/12/06 03:04:48;;;;;;;12.52;8.07;;;;;;;5.67;77.75;100911.78;4151595;28;20068;-69
2022/12/06 03:07:04;;;;;;;13.40;8.07;;;;;;;5.68;77.76;100907.47;4157223;28;20119;-69
2022/12/06 03:09:18;;;;;;;17.95;8.77;;;;;;;5.70;77.98;100911.03;4166477;28;20100;-69
2022/12/06 03:11:21;;;;;;;15.98;8.25;;;;;;;5.72;78.11;100904.22;4166335;28;20049;-69
2022/12/06 03:13:33;;;;;;;11.32;8.57;;;;;;;5.75;77.70;100909.50;4162450;28;20474;-68
2022/12/06 03:15:47;;;;;;;13.98;6.72;;;;;;;5.75;77.94;100902.66;4160441;28;20029;-68
2022/12/06 03:17:53;;;;;;;11.65;8.35;;;;;;;5.74;77.91;100908.63;4163540;28;20499;-68
2022/12/06 03:20:03;;;;;;;10.45;6.75;;;;;;;5.74;77.89;100905.19;4159236;28;20041;-69
2022/12/06 03:22:10;;;;;;;9.20;6.00;;;;;;;5.73;78.03;100906.84;4160235;28;20045;-69
2022/12/06 03:24:15;;;;;;;8.95;6.22;;;;;;;5.74;77.84;100897.44;4155724;28;20041;-68
2022/12/06 03:26:20;;;;;;;;;;;;;;;5.68;77.90;100902.31;4157376;28;20064;-68
2022/12/06 03:28:24;;;;;;;10.73;6.22;;;;;;;5.62;78.00;100902.06;4163326;28;19921;-69
2022/12/06 03:30:30;;;;;;;8.98;5.78;;;;;;;5.58;78.03;100896.78;4163308;28;20383;-69
2022/12/06 03:32:34;;;;;;;6.65;4.30;;;;;;;5.57;78.16;100894.16;4145883;28;20045;-68
2022/12/06 03:34:41;;;;;;;7.35;4.47;;;;;;;5.53;78.13;100887.97;4159613;28;20046;-68
2022/12/06 03:36:48;;;;;;;7.22;4.80;;;;;;;5.52;78.13;100893.97;4158984;28;20042;-68
2022/12/06 03:38:54;;;;;;;7.15;4.53;;;;;;;5.52;77.75;100891.38;4156735;28;20640;-68
2022/12/06 03:41:01;;;;;;;9.70;5.47;;;;;;;5.55;78.42;100888.94;4164181;28;20042;-68
2022/12/06 03:43:05;;;;;;;10.40;4.85;;;;;;;5.55;78.21;100885.50;4160959;28;20041;-68
2022/12/06 03:45:12;;;;;;;7.43;5.23;;;;;;;5.53;78.53;100884.53;4161302;28;20045;-68
2022/12/06 03:47:19;;;;;;;9.18;4.63;;;;;;;5.53;78.48;100898.28;4159682;28;20037;-68
2022/12/06 03:49:28;;;;;;;6.50;4.50;;;;;;;5.50;78.41;100892.13;4163510;28;20111;-69
2022/12/06 03:51:33;;;;;;;7.68;4.63;;;;;;;5.48;78.54;100892.06;4160229;28;20052;-68
2022/12/06 03:53:45;;;;;;;7.45;4.50;;;;;;;5.53;78.29;100895.72;4162895;28;20041;-68
2022/12/06 03:55:48;;;;;;;6.53;4.65;;;;;;;5.53;78.51;100897.41;4156897;28;20065;-69
2022/12/06 03:57:51;;;;;;;8.85;5.22;;;;;;;5.56;78.34;100888.13;4165570;28;20128;-68
2022/12/06 03:59:54;;;;;;;7.55;5.15;;;;;;;5.58;78.51;100899.38;4144376;28;20059;-68
2022/12/06 04:01:57;;;;;;;8.85;5.07;;;;;;;5.62;78.45;100886.59;4161695;28;20130;-68
2022/12/06 04:04:00;;;;;;;7.45;4.88;;;;;;;5.65;78.09;100889.31;4159745;28;20072;-68
2022/12/06 04:06:03;;;;;;;9.25;6.38;;;;;;;5.66;78.09;100881.63;4161733;28;20048;-69
2022/12/06 04:08:06;;;;;;;8.50;6.57;;;;;;;5.68;78.28;100882.59;4161801;28;20037;-69
2022/12/06 04:10:10;;;;;;;8.45;5.35;;;;;;;5.67;78.21;100874.78;4162179;28;20462;-68
2022/12/06 04:14:31;;;;;;;8.60;5.35;;;;;;;5.57;78.32;100887.28;4158494;28;20096;-69
2022/12/06 04:18:55;;;;;;;7.57;4.85;;;;;;;5.59;78.14;100883.09;4160123;28;20049;-69
2022/12/06 04:23:21;;;;;;;7.30;4.20;;;;;;;5.60;78.34;100874.50;4160728;28;20042;-69
2022/12/06 04:25:25;;;;;;;11.73;5.43;;;;;;;5.64;78.04;100877.25;4160287;28;20041;-69
2022/12/06 04:39:10;;;;;;;6.82;3.65;;;;;;;5.63;77.96;100860.00;4159537;28;20033;-69
2022/12/06 04:43:43;;;;;;;6.75;4.18;;;;;;;5.58;78.17;100859.81;4163622;28;20046;-69
2022/12/06 04:45:46;;;;;;;7.82;4.20;;;;;;;5.58;78.18;100850.38;4164562;28;20136;-69
2022/12/06 04:47:49;;;;;;;6.15;3.75;;;;;;;5.60;77.93;100853.00;4150245;28;20053;-68
2022/12/06 04:49:52;;;;;;;5.45;3.65;;;;;;;5.60;78.15;100850.44;4163863;28;20448;-69
2022/12/06 04:51:55;;;;;;;7.28;3.90;;;;;;;5.58;78.08;100846.94;4163421;28;20049;-69
2022/12/06 04:53:58;;;;;;;9.07;4.25;;;;;;;5.63;77.77;100858.28;4163158;28;20038;-69
2022/12/06 04:56:01;;;;;;;8.60;5.00;;;;;;;5.64;77.92;100847.16;4164587;28;20042;-69
2022/12/06 04:58:05;;;;;;;6.35;3.92;;;;;;;5.66;77.72;100850.69;4160242;28;20038;-68
2022/12/06 05:00:08;;;;;;;7.20;4.45;;;;;;;5.66;78.04;100847.22;4160816;28;20106;-69
2022/12/06 05:02:13;;;;;;;5.68;3.83;;;;;;;5.66;78.16;100848.09;4151251;28;20172;-69
2022/12/06 05:04:16;;;;;;;5.80;3.90;;;;;;;5.65;77.86;100854.09;4156588;28;20051;-69
2022/12/06 05:06:19;;;;;;;4.75;3.38;;;;;;;5.66;77.72;100860.13;4154642;28;20045;-69
2022/12/06 05:08:22;;;;;;;7.63;3.88;;;;;;;5.66;77.70;100853.25;4161339;28;20037;-69
2022/12/06 05:10:25;;;;;;;5.05;3.08;;;;;;;5.53;77.14;100851.88;4160682;28;20033;-69
2022/12/06 05:12:28;;;;;;;8.70;3.55;;;;;;;5.45;77.26;100849.78;4160526;28;20410;-69
2022/12/06 05:14:32;;;;;;;4.07;2.80;;;;;;;5.38;77.18;100846.09;4161590;28;20041;-69
2022/12/06 05:16:35;;;;;;;6.18;3.38;;;;;;;5.40;76.88;100847.94;4157755;28;20037;-69
2022/12/06 05:18:38;;;;;;;5.55;3.10;;;;;;;5.38;76.81;100844.38;4159302;28;20069;-69
2022/12/06 05:20:41;;;;;;;6.90;3.03;;;;;;;5.31;76.71;100846.66;4161554;28;20061;-69
2022/12/06 05:22:43;;;;;;;3.60;2.40;;;;;;;5.30;76.54;100847.47;4161572;28;20438;-69
2022/12/06 05:24:46;;;;;;;4.68;2.80;;;;;;;5.34;76.41;100852.81;4160858;28;20049;-68
2022/12/06 05:26:49;;;;;;;7.38;3.40;;;;;;;5.34;76.13;100849.34;4143806;28;20044;-69
2022/12/06 05:28:53;;;;;;;4.88;3.25;;;;;;;5.32;76.08;100851.88;4163498;28;20079;-69
2022/12/06 05:30:57;;;;;;;3.83;2.63;;;;;;;5.31;76.13;100857.84;4163175;28;20030;-69
2022/12/06 05:33:01;;;;;;;4.60;2.88;;;;;;;5.28;76.07;100849.97;4161364;28;20044;-69
2022/12/06 05:35:04;;;;;;;5.88;3.10;;;;;;;5.31;76.33;100859.53;4145007;28;20054;-69
2022/12/06 05:37:07;;;;;;;4.82;2.95;;;;;;;5.25;75.82;100860.16;4158666;28;20029;-69
2022/12/06 05:39:10;;;;;;;4.85;2.90;;;;;;;5.26;75.99;100861.94;4158815;28;20045;-69
2022/12/06 05:41:13;;;;;;;3.92;2.75;;;;;;;5.29;75.73;100854.34;4159557;28;20403;-69
2022/12/06 05:43:17;;;;;;;4.72;3.03;;;;;;;5.31;75.75;100855.25;4155013;28;20050;-69
2022/12/06 05:45:20;;;;;;;4.45;2.65;;;;;;;5.30;75.55;100857.78;4157951;28;20048;-69
2022/12/06 05:47:24;;;;;;;4.97;3.25;;;;;;;5.28;75.37;100854.25;4158572;28;20041;-69
2022/12/06 05:49:27;;;;;;;3.28;2.33;;;;;;;5.22;75.48;100857.47;4166839;28;20041;-69
2022/12/06 05:51:30;;;;;;;4.97;2.78;;;;;;;5.17;75.19;100853.78;4162483;28;20076;-69
2022/12/06 05:53:33;;;;;;;4.82;2.92;;;;;;;5.15;75.23;100860.59;4152263;28;20064;-69
2022/12/06 05:55:35;;;;;;;4.72;3.28;;;;;;;5.14;75.02;100861.41;4157649;28;20061;-69
2022/12/06 05:57:38;;;;;;;6.35;3.17;;;;;;;5.14;75.35;100858.81;4160123;28;20037;-69
2022/12/06 05:59:48;;;;;;;5.05;2.72;;;;;;;5.10;75.13;100865.56;4163835;28;20037;-69
2022/12/06 06:01:51;;;;;;;3.63;2.20;;;;;;;5.09;74.68;100868.94;4159105;28;20439;-70
2022/12/06 06:03:55;;;;;;;4.32;2.70;;;;;;;5.06;74.62;100872.25;4160178;28;20080;-69
2022/12/06 06:06:00;;;;;;;5.32;2.53;;;;;;;5.06;74.84;100869.69;4162347;28;20450;-69
2022/12/06 06:08:03;;;;;;;3.45;2.53;;;;;;;4.99;74.69;100866.78;4158256;28;20411;-69
2022/12/06 06:10:08;;;;;;;4.30;3.00;;;;;;;4.98;74.81;100872.75;4157506;28;20052;-69
2022/12/06 06:12:10;;;;;;;4.20;2.65;;;;;;;4.99;74.76;100872.81;4161688;28;20505;-69
2022/12/06 06:14:14;;;;;;;4.43;2.45;;;;;;;4.96;74.63;100882.97;4161073;28;20406;-69
2022/12/06 06:16:17;;;;;;;4.35;2.58;;;;;;;4.88;74.75;100882.66;4160120;28;20033;-69
2022/12/06 06:18:20;;;;;;;4.15;2.80;;;;;;;4.92;74.76;100875.06;4161408;28;20038;-69
2022/12/06 06:20:24;;;;;;;5.13;2.88;;;;;;;4.94;74.65;100881.19;4159007;28;20046;-69
2022/12/06 06:22:27;;;;;;;6.35;2.83;;;;;;;4.90;74.65;100883.59;4163689;28;20132;-69
2022/12/06 06:24:35;;;;;;;4.38;2.40;;;;;;;4.87;74.53;100885.16;4157040;28;20041;-69
2022/12/06 06:26:37;;;;;;;3.95;2.47;;;;;;;4.82;74.77;100878.91;4155019;28;20045;-69
2022/12/06 06:28:40;;;;;;;4.95;2.72;;;;;;;4.85;74.79;100873.94;4161660;28;20037;-69
2022/12/06 06:30:43;;;;;;;4.07;2.55;;;;;;;4.89;74.87;100879.28;4159356;28;20042;-69
2022/12/06 06:32:46;;;;;;;4.45;2.90;;;;;;;4.87;74.83;100883.47;4163166;28;20088;-69
2022/12/06 06:34:49;;;;;;;4.93;3.00;;;;;;;4.83;74.67;100879.00;4156753;28;20084;-69
2022/12/06 06:36:53;;;;;;;4.72;3.03;;;;;;;4.86;74.88;100875.66;4163589;28;20483;-69
2022/12/06 06:38:57;;;;;;;5.57;3.67;;;;;;;4.88;74.94;100871.47;4158673;28;20066;-69
2022/12/06 06:41:01;;;;;;;4.18;2.67;;;;;;;4.88;75.02;100874.94;4147456;28;20077;-69
2022/12/06 06:43:17;;;;;;;4.47;2.97;;;;;;;4.90;74.75;100875.00;4157726;28;20048;-69
2022/12/06 06:45:20;;;;;;;4.85;2.88;;;;;;;4.89;74.82;100876.69;4161268;28;20038;-69
2022/12/06 06:47:30;;;;;;;4.97;3.47;;;;;;;4.90;74.76;100877.56;4163735;28;20060;-69
2022/12/06 06:49:33;;;;;;;6.30;3.55;;;;;;;4.98;74.56;100872.75;4163711;28;20042;-69
2022/12/06 06:51:36;;;;;;;4.57;2.58;;;;;;;5.00;74.63;100873.72;4163546;28;20112;-69
2022/12/06 06:53:40;;;;;;;4.97;3.38;;;;;;;5.03;74.76;100873.84;4162402;28;20038;-69
2022/12/06 06:55:43;;;;;;;4.18;2.90;;;;;;;5.02;74.59;100878.13;4158898;28;20058;-69
2022/12/06 06:57:46;;;;;;;4.75;3.00;;;;;;;5.10;74.75;100881.03;4158707;28;20026;-69
2022/12/06 06:59:49;;;;;;;7.13;3.63;;;;;;;5.12;74.33;100879.38;4151848;28;20048;-69
2022/12/06 07:01:52;;;;;;;4.45;3.10;;;;;;;5.12;74.57;100881.94;4155056;28;20548;-68
2022/12/06 07:03:55;;;;;;;5.10;3.60;;;;;;;5.03;74.22;100879.84;4156704;28;20045;-69
2022/12/06 07:05:59;;;;;;;5.60;3.55;;;;;;;4.99;74.48;100877.09;4158638;28;20104;-68
2022/12/06 07:08:03;;;;;;;6.63;3.85;;;;;;;4.88;74.58;100880.09;4157764;28;20474;-67
2022/12/06 07:10:08;;;;;;;5.53;3.90;;;;;;;4.94;74.01;100878.59;4168811;28;20041;-69
2022/12/06 07:12:11;;;;;;;6.28;3.53;;;;;;;4.85;74.45;100877.38;4158138;28;20056;-71
2022/12/06 07:14:14;;;;;;;5.68;3.88;;;;;;;4.88;74.61;100889.50;4158652;28;20048;-71
2022/12/06 07:16:17;;;;;;;5.72;3.60;;;;;;;4.88;74.37;100884.38;4156442;28;20052;-71
2022/12/06 07:18:20;;;;;;;5.80;3.83;;;;;;;4.84;74.31;100882.47;4164581;28;20029;-72
2022/12/06 07:20:23;;;;;;;6.70;4.13;;;;;;;4.84;74.25;100880.75;4157612;28;20045;-75
2022/12/06 07:22:26;;;;;;;6.20;4.13;;;;;;;4.84;74.23;100879.88;4157060;28;20045;-73
2022/12/06 07:24:28;;;;;;;7.22;4.28;;;;;;;4.89;74.42;100883.53;4161422;28;20044;-73
2022/12/06 07:26:33;;;;;;;7.47;4.68;;;;;;;4.87;74.25;100883.47;4157587;28;20033;-73
2022/12/06 07:28:37;;;;;;;6.80;4.20;;;;;;;4.79;73.97;100887.41;4160713;28;20442;-73
2022/12/06 07:30:40;;;;;;;6.93;3.90;;;;;;;4.80;74.14;100886.56;4153110;28;20042;-73
2022/12/06 07:32:42;;;;;;;6.82;4.47;;;;;;;4.81;74.22;100892.63;4155882;28;20115;-73
2022/12/06 07:34:45;;;;;;;6.53;4.32;;;;;;;4.80;74.30;100896.88;4162320;28;20052;-73
2022/12/06 07:36:48;;;;;;;6.25;4.22;;;;;;;4.83;74.16;100897.03;4162386;28;20060;-73
2022/12/06 07:38:53;;;;;;;7.32;3.97;;;;;;;4.84;74.21;100890.19;4162066;28;20443;-73
2022/12/06 07:41:00;;;;;;;5.38;3.55;;;;;;;4.86;73.88;100886.88;4158981;28;20068;-73
2022/12/06 07:45:28;;;;;;;5.93;3.97;;;;;;;4.85;74.04;100885.09;4164657;28;20047;-73
2022/12/06 07:47:35;;;;;;;7.85;4.03;;;;;;;4.89;74.10;100879.28;4154510;28;20053;-73
2022/12/06 07:49:37;;;;;;;7.63;4.10;;;;;;;4.81;73.87;100896.06;4147499;28;20046;-73
2022/12/06 07:51:40;;;;;;;6.68;4.03;;;;;;;4.80;74.12;100896.00;4163837;28;20037;-73
2022/12/06 07:53:43;;;;;;;7.15;3.97;;;;;;;4.84;74.11;100897.91;4155974;28;20033;-73
2022/12/06 07:55:47;;;;;;;6.28;4.18;;;;;;;4.83;74.20;100897.03;4151115;28;20411;-73
2022/12/06 07:57:49;;;;;;;6.63;4.28;;;;;;;4.76;74.11;100892.44;4161045;28;20032;-73
2022/12/06 07:59:54;;;;;;;6.90;4.78;;;;;;;4.85;74.13;100889.38;4155149;28;20056;-73
2022/12/06 08:01:57;;;;;;;5.25;3.60;;;;;;;4.80;73.99;100891.72;4160955;28;20065;-73
2022/12/06 08:04:00;;;;;;;9.02;5.28;;;;;;;4.79;74.16;100889.09;4161087;28;20049;-73
2022/12/06 08:06:05;;;;;;;7.75;5.00;;;;;;;4.80;74.30;100889.16;4158859;28;20053;-73
2022/12/06 08:08:08;;;;;;;7.18;4.60;;;;;;;4.84;74.18;100892.75;4161655;28;20037;-73
2022/12/06 08:10:11;;;;;;;6.25;4.25;;;;;;;4.84;74.18;100891.06;4157793;28;20037;-72
2022/12/06 08:12:15;;;;;;;6.95;4.35;;;;;;;4.81;74.18;100898.66;4155996;28;20053;-73
2022/12/06 08:14:17;;;;;;;6.45;3.90;;;;;;;4.78;74.43;100903.66;4159793;28;20115;-73
2022/12/06 08:16:21;;;;;;;7.07;4.57;;;;;;;4.81;74.59;100896.06;4156100;28;20041;-74
2022/12/06 08:18:25;;;;;;;6.75;4.43;;;;;;;4.85;74.41;100895.41;4151401;28;20033;-74
2022/12/06 08:20:28;;;;;;;7.60;5.18;;;;;;;4.87;74.31;100892.91;4160932;28;20037;-74
2022/12/06 08:22:30;;;;;;;7.85;5.13;;;;;;;4.87;74.33;100898.03;4160780;28;20124;-74
2022/12/06 08:24:33;;;;;;;7.65;5.10;;;;;;;4.86;74.43;100896.28;4155689;28;20091;-74
2022/12/06 08:26:36;;;;;;;7.65;4.80;;;;;;;4.86;74.28;100894.59;4158607;28;20042;-71
2022/12/06 08:28:41;;;;;;;7.60;4.72;;;;;;;4.91;74.18;100894.81;4150570;28;20120;-71
2022/12/06 08:30:44;;;;;;;8.18;5.03;;;;;;;4.89;74.27;100888.69;4167936;28;20055;-72
2022/12/06 08:32:48;;;;;;;7.00;4.78;;;;;;;4.85;74.18;100895.41;4157417;28;20550;-71
2022/12/06 08:34:51;;;;;;;7.10;5.03;;;;;;;4.86;74.05;100894.59;4159103;28;20099;-68
2022/12/06 08:36:54;;;;;;;8.25;5.38;;;;;;;4.86;73.97;100886.88;4143865;28;20050;-68
2022/12/06 08:39:05;;;;;;;6.90;4.63;;;;;;;4.93;74.07;100892.28;4162012;28;20127;-71
2022/12/06 08:41:54;;;;;;;7.47;4.47;;;;;;;5.03;74.04;100885.00;4154234;28;20053;-68
2022/12/06 08:43:32;;;;;;;7.68;4.53;;;;;;;5.13;73.98;100886.31;4152606;28;20487;-67
2022/12/06 08:45:35;;;;;;;7.00;4.38;;;;;;;5.17;73.58;100885.63;4159462;28;20072;-63
2022/12/06 08:47:38;;;;;;;6.78;4.88;;;;;;;5.22;73.72;100881.53;4160809;28;20057;-68
2022/12/06 08:49:42;;;;;;;8.88;4.80;;;;;;;5.23;73.46;100877.28;4161829;28;20151;-64
2022/12/06 08:51:46;;;;;;;8.38;5.43;;;;;;;5.22;73.16;100878.94;4156605;28;20139;-68
2022/12/06 08:53:51;;;;;;;8.52;5.70;;;;;;;5.21;73.01;100873.72;4153449;28;20046;-66
2022/12/06 08:55:55;;;;;;;6.72;4.95;;;;;;;5.20;73.34;100867.72;4156201;28;20041;-66
2022/12/06 08:58:04;;;;;;;8.10;4.53;;;;;;;5.22;73.29;100876.38;4160879;28;20100;-70
2022/12/06 09:00:08;;;;;;;8.73;4.95;;;;;;;5.26;73.34;100879.97;4158151;28;20045;-72
2022/12/06 09:02:12;;;;;;;8.30;5.30;;;;;;;5.28;73.07;100874.88;4156806;28;20053;-73
2022/12/06 09:04:15;;;;;;;9.07;5.82;;;;;;;5.30;72.96;100878.41;4157930;28;20041;-70
2022/12/06 09:06:21;;;;;;;7.35;4.65;;;;;;;5.33;72.91;100886.25;4160391;28;20083;-73
2022/12/06 09:08:23;;;;;;;5.75;4.00;;;;;;;5.27;72.83;100888.59;4157156;28;20083;-73
2022/12/06 09:10:26;;;;;;;7.15;4.53;;;;;;;5.21;72.79;100890.09;4157839;28;20033;-73
2022/12/06 09:12:29;;;;;;;11.02;7.40;;;;;;;5.15;73.01;100889.81;4154382;28;20049;-73
2022/12/06 09:14:32;;;;;;;6.60;4.05;;;;;;;5.12;73.06;100888.81;4155210;28;20553;-73
2022/12/06 09:16:35;;;;;;;9.60;5.88;;;;;;;5.09;73.13;100889.56;4156796;28;20127;-73
2022/12/06 09:18:38;;;;;;;6.95;4.13;;;;;;;5.11;73.26;100887.03;4161123;28;20033;-73
2022/12/06 09:20:41;;;;;;;8.40;5.53;;;;;;;5.06;73.36;100885.16;4153703;28;20038;-73
2022/12/06 09:22:46;;;;;;;7.47;4.78;;;;;;;5.09;73.50;100879.25;4158692;28;20371;-73
2022/12/06 09:24:49;;;;;;;8.13;5.03;;;;;;;5.17;73.35;100890.78;4157941;28;20045;-72
2022/12/06 09:26:51;;;;;;;7.25;4.70;;;;;;;5.11;73.02;100889.63;4159398;28;20099;-72
2022/12/06 09:28:55;;;;;;;7.57;4.63;;;;;;;5.11;72.98;100887.94;4155261;28;20041;-73
2022/12/06 09:30:58;;;;;;;6.85;4.68;;;;;;;5.09;73.35;100889.56;4149768;28;20045;-73
2022/12/06 09:33:01;;;;;;;7.38;4.85;;;;;;;5.13;73.36;100891.47;4149139;28;20573;-73
2022/12/06 09:35:05;;;;;;;6.93;4.05;;;;;;;5.14;73.30;100887.16;4156663;28;20042;-73
2022/12/06 09:37:15;;;;;;;6.57;4.53;;;;;;;5.18;72.79;100895.13;4166076;28;20572;-72
2022/12/06 09:39:23;;;;;;;7.78;4.57;;;;;;;5.20;72.77;100902.94;4160410;28;20037;-72
2022/12/06 09:41:43;;;;;;;8.30;4.63;;;;;;;5.17;72.93;100897.59;4153918;28;20048;-72
2022/12/06 09:43:57;;;;;;;12.68;4.97;;;;;;;5.18;72.81;100895.13;4154523;28;20057;-73
2022/12/06 09:46:12;;;;;;;7.40;4.30;;;;;;;5.16;72.57;100893.28;4150969;28;20083;-70
2022/12/06 09:48:31;;;;;;;9.13;4.13;;;;;;;5.05;72.23;100903.13;4153067;28;20041;-69
2022/12/06 09:50:43;;;;;;;6.13;3.60;;;;;;;5.01;72.74;100896.09;4155639;28;20072;-75
2022/12/06 09:53:12;;;;;;;6.95;3.80;;;;;;;5.06;72.77;100900.59;4156230;28;20557;-75
2022/12/06 09:55:34;;;;;;;6.45;3.83;;;;;;;5.09;72.55;100899.88;4159423;28;20047;-75
2022/12/06 09:57:42;;;;;;;6.20;3.65;;;;;;;5.13;72.55;100898.31;4141059;28;20483;-75
2022/12/06 09:59:54;;;;;;;6.90;4.07;;;;;;;5.14;72.77;100903.53;4151793;28;20123;-75
2022/12/06 10:02:13;;;;;;;6.90;3.70;;;;;;;5.13;72.73;100896.59;4154285;28;20041;-75
2022/12/06 10:04:38;;;;;;;5.57;3.47;;;;;;;5.21;72.34;100900.41;4155375;28;20041;-75
2022/12/06 10:06:47;;;;;;;6.03;3.92;;;;;;;5.19;72.11;100890.84;4155102;28;20393;-75
2022/12/06 10:09:08;;;;;;;7.18;4.35;;;;;;;5.18;72.15;100892.56;4153712;28;20049;-75
2022/12/06 10:11:26;;;;;;;7.40;4.47;;;;;;;5.10;72.39;100891.31;4158853;28;20042;-75
2022/12/06 10:13:47;;;;;;;5.82;3.88;;;;;;;5.11;72.30;100898.25;4157098;28;20092;-75